Messwerte Mildenhall RAF

Temperatur

Temperatur
°C
1573610400 2.00 2.00 5
1573614000 3.00 3.00 4
1573617600 4.00 4.00 4
1573621200 5.00 5.00
1573624800 6.00 6.00 4
1573628400 7.00 7.00 3
1573632000 8.00 8.00 3
1573635600 9.00 9.00 4
1573639200 10.00 10.00 6
1573642800 11.00 11.00 6
1573646400 12.00 12.00 7
1573650000 13.00 13.00 8
1573653600 14.00 14.00
1573657200 15.00 15.00 8
1573660800 16.00 16.00 7
1573664400 17.00 17.00
1573668000 18.00 18.00 4
1573671600 19.00 19.00
1573675200 20.00 20.00 4
1573678800 21.00 21.00 3
1573682400 22.00 22.00 3
1573686000 23.00 23.00 5
1573689600 0.00 0.00 5
1573693200 1.00 1.00 5

Aktuellste Messwerte

Wettercharakter
Wetter: meist klar
Temperatur
5 °C
Feuchtigkeit
100 %
Wind
20 km/hWindrichtung: Ost
Luftdruck
991 hPa
Messzeit: 14. November 2019, 2.00Datenquelle: METAR

Weitere Messstationen in der Nähe

Messstation Temperatur Entfernung
Lakenheath - 7 km
Cambridge - 28 km
Marham 5 °C 34 km
Wattisham 6 °C 41 km
Stansted 6 °C 55 km
Holbeach - 62 km
Norwich 5 °C 62 km

Wind

Windrichtung Böen Mittelwind
° km/h km/h
1573610400 2.00 1.00 - 2.00 290° 20
1573614000 3.00 2.00 - 3.00 280° 10
1573617600 4.00 3.00 - 4.00 260° 10
1573621200 5.00 4.00 - 5.00
1573624800 6.00 5.00 - 6.00 240° 10
1573628400 7.00 6.00 - 7.00 230° 10
1573632000 8.00 7.00 - 8.00 260° 15
1573635600 9.00 8.00 - 9.00 240° 15
1573639200 10.00 9.00 - 10.00 240° 10
1573642800 11.00 10.00 - 11.00 240° 15
1573646400 12.00 11.00 - 12.00 250° 10
1573650000 13.00 12.00 - 13.00 230° 15
1573653600 14.00 13.00 - 14.00
1573657200 15.00 14.00 - 15.00 200° 10
1573660800 16.00 15.00 - 16.00 150° 10
1573664400 17.00 16.00 - 17.00
1573668000 18.00 17.00 - 18.00 140° 10
1573671600 19.00 18.00 - 19.00 130° 20
1573675200 20.00 19.00 - 20.00 130° 15
1573678800 21.00 20.00 - 21.00 120° 15
1573682400 22.00 21.00 - 22.00 100° 15
1573686000 23.00 22.00 - 23.00 100° 15
1573689600 0.00 23.00 - 0.00 70° 15
1573693200 1.00 0.00 - 1.00 80° 20

Ihre Wetterstation

Fehlt Ihre Wetterstation auf unserem Portal?

Schreiben Sie an network@meteonews.ch

Klima

Wann ist es am wärmsten? Wann regnet es am wenigsten? Unsere Klimadaten geben Auskunft.